Seabourn Quest — C6YZ5 — position and weather

sailwx.info

Track history (hours):
 
Tides and Currents Weather Stations Pressure Air Temp Water Temp Dewpoint Dewpoint Depression Visibility Wind Speed Wind Dir Waves Ship Positions

Seabourn Quest

Last reported at 2016-Aug-24 00:33 UTC. Time now 2016-Aug-26 01:20 UTC.
Position N 55°47' W 006°45'.

Length 197 m; draft 6.7 m.

Type: Ship. MMSI: 311038900.

Date/timePositionNaut miles runAvg speedWind from/ knotsBaromVisibWave heightAir tempDewpointWater temp
2016-Aug-24 00:33N 55°47' W 006°45'1212.1
2016-Aug-23 23:33N 55°36' W 006°36'1111.5
2016-Aug-23 22:33N 55°29' W 006°21'1514.8
2016-Aug-23 21:33N 55°21' W 005°59'1716.6
2016-Aug-23 20:31N 55°15' W 005°31'1818.6
2016-Aug-23 19:32N 55°24' W 005°03'2217.2
2016-Aug-23 18:14N 55°46' W 004°59'1014.3
2016-Aug-23 17:33N 55°55' W 004°55'6 5.4
2016-Aug-23 16:29N 55°57' W 004°46'0 0.0
2016-Aug-23 15:32N 55°57' W 004°46'0 0.0
2016-Aug-23 14:28N 55°57' W 004°46'0 0.0
2016-Aug-23 13:31N 55°57' W 004°46'0 0.0
2016-Aug-23 12:31N 55°57' W 004°46'0 0.0
2016-Aug-23 11:33N 55°57' W 004°46'0 0.0
2016-Aug-23 10:33N 55°57' W 004°46'0 0.0
2016-Aug-23 09:33N 55°57' W 004°46'0 0.0
2016-Aug-23 08:32N 55°57' W 004°46'0 0.0
2016-Aug-23 07:32N 55°57' W 004°46'1 0.9
2016-Aug-23 06:33N 55°58' W 004°47'10 9.9
2016-Aug-23 05:33N 55°50' W 004°57'2611.9
2016-Aug-23 03:20N 55°24' W 005°03'1412.4
2016-Aug-23 02:10N 55°11' W 005°14'812.7
2016-Aug-23 01:33N 55°03' W 005°16'1414.5
2016-Aug-23 00:33N 54°49' W 005°16'1413.9
2016-Aug-22 23:33N 54°35' W 005°13'1413.8
2016-Aug-22 22:33N 54°21' W 005°13'1414.4
2016-Aug-22 21:33N 54°07' W 005°17'197 7.0
2016-Aug-21 17:26N 50°52' W 005°53'1416.5
2016-Aug-21 16:33N 50°37' W 005°53'1918.6
2016-Aug-21 15:33N 50°18' W 005°53'2219.0
2016-Aug-21 14:24N 49°56' W 005°53'3116.6
2016-Aug-21 12:30N 49°52' W 005°05'1313.8
2016-Aug-21 11:32N 49°53' W 004°44'1313.0
2016-Aug-21 10:33N 49°54' W 004°24'1411.9
2016-Aug-21 09:21N 49°56' W 004°02'910.8
2016-Aug-21 08:34N 49°57' W 003°49'1010.2
2016-Aug-21 07:34N 49°58' W 003°33'1010.4
2016-Aug-21 06:34N 49°59' W 003°17'1111.5
2016-Aug-21 05:34N 50°00' W 002°59'1313.0
2016-Aug-21 04:33N 50°04' W 002°40'9114.4
2016-Aug-20 22:13N 50°28' W 000°22'812.2
2016-Aug-20 21:32N 50°30' W 000°09'1312.9
2016-Aug-20 20:33N 50°33' E 000°10'5115.2
2016-Aug-20 17:12N 51°01' E 001°18'710.6
2016-Aug-20 16:33N 51°07' E 001°22'2 1.5
2016-Aug-20 15:24N 51°07' E 001°19'0 0.0
2016-Aug-20 14:29N 51°07' E 001°19'0 0.0
2016-Aug-20 13:31N 51°07' E 001°19'0 0.0
2016-Aug-20 12:30N 51°07' E 001°19'0 0.0
2016-Aug-20 11:33N 51°07' E 001°19'0 0.0
2016-Aug-20 10:32N 51°07' E 001°19'0 0.0
2016-Aug-20 09:24N 51°07' E 001°19'0 0.0
2016-Aug-20 08:27N 51°07' E 001°19'0 0.0
2016-Aug-20 07:32N 51°07' E 001°19'0 0.0
2016-Aug-20 06:28N 51°07' E 001°19'0 0.0
2016-Aug-20 05:25N 51°07' E 001°19'1 0.7
2016-Aug-20 04:32N 51°07' E 001°20'7 7.4
2016-Aug-20 03:33N 51°04' E 001°31'5410.8
2016-Aug-19 22:33N 50°26' E 000°30'1211.8
2016-Aug-19 21:32N 50°23' E 000°12'1211.9
2016-Aug-19 20:33N 50°19' W 000°06'1212.0
2016-Aug-19 19:32N 50°16' W 000°24'1413.9
2016-Aug-19 18:33N 50°13' W 000°45'8311.9
2016-Aug-19 11:33N 49°50' W 002°49'1211.9
2016-Aug-19 10:31N 49°50' W 003°08'1212.1
2016-Aug-19 09:33N 49°51' W 003°26'1212.4
2016-Aug-19 08:33N 49°50' W 003°46'1614.1
2016-Aug-19 07:26N 49°49' W 004°10'1113.2
2016-Aug-19 06:34N 49°51' W 004°28'1414.2
2016-Aug-19 05:33N 49°50' W 004°50'5212.9
2016-Aug-19 01:30N 50°14' W 006°02'1616.5
2016-Aug-19 00:31N 50°29' W 006°12'9217.4
2016-Aug-18 19:13N 51°34' W 007°57'1217.5
2016-Aug-18 18:33N 51°42' W 008°10'1010.1
2016-Aug-18 17:33N 51°51' W 008°17'0 0.4
2016-Aug-18 16:32N 51°51' W 008°18'0 0.0
2016-Aug-18 15:32N 51°51' W 008°18'0 0.0
2016-Aug-18 14:32N 51°51' W 008°18'0 0.0
2016-Aug-18 13:30N 51°51' W 008°18'0 0.0
2016-Aug-18 12:28N 51°51' W 008°18'0 0.0
2016-Aug-18 11:30N 51°51' W 008°18'0 0.0
2016-Aug-18 10:30N 51°51' W 008°18'0 0.0
2016-Aug-18 09:30N 51°51' W 008°18'0 0.0
2016-Aug-18 08:26N 51°51' W 008°18'0 0.0
2016-Aug-18 07:32N 51°51' W 008°18'0 0.0
2016-Aug-18 06:33N 51°51' W 008°18'7 7.3
2016-Aug-18 05:33N 51°45' W 008°11'1212.2
2016-Aug-18 04:33N 51°44' W 007°52'1312.8
2016-Aug-18 03:31N 51°42' W 007°30'1212.4
2016-Aug-18 02:33N 51°41' W 007°11'1212.3
2016-Aug-18 01:33N 51°40' W 006°52'75 2.8
2016-Aug-16 23:04N 52°44' W 005°49'8 9.3
2016-Aug-16 22:11N 52°52' W 005°52'50 2.4
2016-Aug-16 01:27N 53°31' W 005°01'45 9.1
2016-Aug-15 20:29N 53°34' W 003°45'7 7.6
2016-Aug-15 19:33N 53°34' W 003°33'7 7.4
2016-Aug-15 18:33N 53°32' W 003°21'9 9.1
2016-Aug-15 17:33N 53°30' W 003°06'7 5.9
2016-Aug-15 16:25N 53°24' W 003°00'0 0.0
2016-Aug-15 15:31N 53°24' W 003°00'0 0.0
2016-Aug-15 14:31N 53°24' W 003°00'0 0.0
2016-Aug-15 13:32N 53°24' W 003°00'0 0.0
2016-Aug-15 12:32N 53°24' W 003°00'0 0.0
2016-Aug-15 11:32N 53°24' W 003°00'0 0.0
2016-Aug-15 10:32N 53°24' W 003°00'0 0.0
2016-Aug-15 09:32N 53°24' W 003°00'0 0.0
2016-Aug-15 08:29N 53°24' W 003°00'0 0.0
2016-Aug-15 07:31N 53°24' W 003°00'0 0.0
2016-Aug-15 06:31N 53°24' W 003°00'14 7.3
2016-Aug-15 04:33N 53°32' W 003°21'1111.5
2016-Aug-15 03:33N 53°31' W 003°40'1412.4
2016-Aug-15 02:25N 53°37' W 004°01'6112.0
2016-Aug-14 21:22N 54°22' W 005°12'1012.2
2016-Aug-14 20:33N 54°31' W 005°16'1211.8
2016-Aug-14 19:33N 54°42' W 005°25'1111.4
2016-Aug-14 18:33N 54°42' W 005°45'8 5.2
2016-Aug-14 17:03N 54°37' W 005°55'0 0.0
2016-Aug-14 16:30N 54°37' W 005°55'0 0.0
2016-Aug-14 14:33N 54°37' W 005°55'0 0.0
2016-Aug-14 07:32N 54°37' W 005°55'0 0.0
2016-Aug-14 06:23N 54°37' W 005°55'0 0.0
2016-Aug-14 04:25N 54°37' W 005°55'0 0.0
2016-Aug-14 03:28N 54°37' W 005°55'0 0.0
2016-Aug-14 02:25N 54°37' W 005°55'0 0.0
2016-Aug-14 01:30N 54°37' W 005°55'  
Track history (hours):
 
Tides and Currents Weather Stations Pressure Air Temp Water Temp Dewpoint Dewpoint Depression Visibility Wind Speed Wind Dir Waves Ship Positions

Seabourn Quest

Last reported at 2016-Aug-24 00:33 UTC. Time now 2016-Aug-26 01:20 UTC.
Position N 55°47' W 006°45'.

Length 197 m; draft 6.7 m.

Type: Ship. MMSI: 311038900.

Date/timePositionNaut miles runAvg speedWind from/ knotsBaromVisibWave heightAir tempDewpointWater temp
2016-Aug-24 00:33N 55°47' W 006°45'1212.1
2016-Aug-23 23:33N 55°36' W 006°36'1111.5
2016-Aug-23 22:33N 55°29' W 006°21'1514.8
2016-Aug-23 21:33N 55°21' W 005°59'1716.6
2016-Aug-23 20:31N 55°15' W 005°31'1818.6
2016-Aug-23 19:32N 55°24' W 005°03'2217.2
2016-Aug-23 18:14N 55°46' W 004°59'1014.3
2016-Aug-23 17:33N 55°55' W 004°55'6 5.4
2016-Aug-23 16:29N 55°57' W 004°46'0 0.0
2016-Aug-23 15:32N 55°57' W 004°46'0 0.0
2016-Aug-23 14:28N 55°57' W 004°46'0 0.0
2016-Aug-23 13:31N 55°57' W 004°46'0 0.0
2016-Aug-23 12:31N 55°57' W 004°46'0 0.0
2016-Aug-23 11:33N 55°57' W 004°46'0 0.0
2016-Aug-23 10:33N 55°57' W 004°46'0 0.0
2016-Aug-23 09:33N 55°57' W 004°46'0 0.0
2016-Aug-23 08:32N 55°57' W 004°46'0 0.0
2016-Aug-23 07:32N 55°57' W 004°46'1 0.9
2016-Aug-23 06:33N 55°58' W 004°47'10 9.9
2016-Aug-23 05:33N 55°50' W 004°57'2611.9
2016-Aug-23 03:20N 55°24' W 005°03'1412.4
2016-Aug-23 02:10N 55°11' W 005°14'812.7
2016-Aug-23 01:33N 55°03' W 005°16'1414.5
2016-Aug-23 00:33N 54°49' W 005°16'1413.9
2016-Aug-22 23:33N 54°35' W 005°13'1413.8
2016-Aug-22 22:33N 54°21' W 005°13'1414.4
2016-Aug-22 21:33N 54°07' W 005°17'197 7.0
2016-Aug-21 17:26N 50°52' W 005°53'1416.5
2016-Aug-21 16:33N 50°37' W 005°53'1918.6
2016-Aug-21 15:33N 50°18' W 005°53'2219.0
2016-Aug-21 14:24N 49°56' W 005°53'3116.6
2016-Aug-21 12:30N 49°52' W 005°05'1313.8
2016-Aug-21 11:32N 49°53' W 004°44'1313.0
2016-Aug-21 10:33N 49°54' W 004°24'1411.9
2016-Aug-21 09:21N 49°56' W 004°02'910.8
2016-Aug-21 08:34N 49°57' W 003°49'1010.2
2016-Aug-21 07:34N 49°58' W 003°33'1010.4
2016-Aug-21 06:34N 49°59' W 003°17'1111.5
2016-Aug-21 05:34N 50°00' W 002°59'1313.0
2016-Aug-21 04:33N 50°04' W 002°40'9114.4
2016-Aug-20 22:13N 50°28' W 000°22'812.2
2016-Aug-20 21:32N 50°30' W 000°09'1312.9
2016-Aug-20 20:33N 50°33' E 000°10'5115.2
2016-Aug-20 17:12N 51°01' E 001°18'710.6
2016-Aug-20 16:33N 51°07' E 001°22'2 1.5
2016-Aug-20 15:24N 51°07' E 001°19'0 0.0
2016-Aug-20 14:29N 51°07' E 001°19'0 0.0
2016-Aug-20 13:31N 51°07' E 001°19'0 0.0
2016-Aug-20 12:30N 51°07' E 001°19'0 0.0
2016-Aug-20 11:33N 51°07' E 001°19'0 0.0
2016-Aug-20 10:32N 51°07' E 001°19'0 0.0
2016-Aug-20 09:24N 51°07' E 001°19'0 0.0
2016-Aug-20 08:27N 51°07' E 001°19'0 0.0
2016-Aug-20 07:32N 51°07' E 001°19'0 0.0
2016-Aug-20 06:28N 51°07' E 001°19'0 0.0
2016-Aug-20 05:25N 51°07' E 001°19'1 0.7
2016-Aug-20 04:32N 51°07' E 001°20'7 7.4
2016-Aug-20 03:33N 51°04' E 001°31'5410.8
2016-Aug-19 22:33N 50°26' E 000°30'1211.8
2016-Aug-19 21:32N 50°23' E 000°12'1211.9
2016-Aug-19 20:33N 50°19' W 000°06'1212.0
2016-Aug-19 19:32N 50°16' W 000°24'1413.9
2016-Aug-19 18:33N 50°13' W 000°45'8311.9
2016-Aug-19 11:33N 49°50' W 002°49'1211.9
2016-Aug-19 10:31N 49°50' W 003°08'1212.1
2016-Aug-19 09:33N 49°51' W 003°26'1212.4
2016-Aug-19 08:33N 49°50' W 003°46'1614.1
2016-Aug-19 07:26N 49°49' W 004°10'1113.2
2016-Aug-19 06:34N 49°51' W 004°28'1414.2
2016-Aug-19 05:33N 49°50' W 004°50'5212.9
2016-Aug-19 01:30N 50°14' W 006°02'1616.5
2016-Aug-19 00:31N 50°29' W 006°12'9217.4
2016-Aug-18 19:13N 51°34' W 007°57'1217.5
2016-Aug-18 18:33N 51°42' W 008°10'1010.1
2016-Aug-18 17:33N 51°51' W 008°17'0 0.4
2016-Aug-18 16:32N 51°51' W 008°18'0 0.0
2016-Aug-18 15:32N 51°51' W 008°18'0 0.0
2016-Aug-18 14:32N 51°51' W 008°18'0 0.0
2016-Aug-18 13:30N 51°51' W 008°18'0 0.0
2016-Aug-18 12:28N 51°51' W 008°18'0 0.0
2016-Aug-18 11:30N 51°51' W 008°18'0 0.0
2016-Aug-18 10:30N 51°51' W 008°18'0 0.0
2016-Aug-18 09:30N 51°51' W 008°18'0 0.0
2016-Aug-18 08:26N 51°51' W 008°18'0 0.0
2016-Aug-18 07:32N 51°51' W 008°18'0 0.0
2016-Aug-18 06:33N 51°51' W 008°18'7 7.3
2016-Aug-18 05:33N 51°45' W 008°11'1212.2
2016-Aug-18 04:33N 51°44' W 007°52'1312.8
2016-Aug-18 03:31N 51°42' W 007°30'1212.4
2016-Aug-18 02:33N 51°41' W 007°11'1212.3
2016-Aug-18 01:33N 51°40' W 006°52'75 2.8
2016-Aug-16 23:04N 52°44' W 005°49'8 9.3
2016-Aug-16 22:11N 52°52' W 005°52'50 2.4
2016-Aug-16 01:27N 53°31' W 005°01'45 9.1
2016-Aug-15 20:29N 53°34' W 003°45'7 7.6
2016-Aug-15 19:33N 53°34' W 003°33'7 7.4
2016-Aug-15 18:33N 53°32' W 003°21'9 9.1
2016-Aug-15 17:33N 53°30' W 003°06'7 5.9
2016-Aug-15 16:25N 53°24' W 003°00'0 0.0
2016-Aug-15 15:31N 53°24' W 003°00'0 0.0
2016-Aug-15 14:31N 53°24' W 003°00'0 0.0
2016-Aug-15 13:32N 53°24' W 003°00'0 0.0
2016-Aug-15 12:32N 53°24' W 003°00'0 0.0
2016-Aug-15 11:32N 53°24' W 003°00'0 0.0
2016-Aug-15 10:32N 53°24' W 003°00'0 0.0
2016-Aug-15 09:32N 53°24' W 003°00'0 0.0
2016-Aug-15 08:29N 53°24' W 003°00'0 0.0
2016-Aug-15 07:31N 53°24' W 003°00'0 0.0
2016-Aug-15 06:31N 53°24' W 003°00'14 7.3
2016-Aug-15 04:33N 53°32' W 003°21'1111.5
2016-Aug-15 03:33N 53°31' W 003°40'1412.4
2016-Aug-15 02:25N 53°37' W 004°01'6112.0
2016-Aug-14 21:22N 54°22' W 005°12'1012.2
2016-Aug-14 20:33N 54°31' W 005°16'1211.8
2016-Aug-14 19:33N 54°42' W 005°25'1111.4
2016-Aug-14 18:33N 54°42' W 005°45'8 5.2
2016-Aug-14 17:03N 54°37' W 005°55'0 0.0
2016-Aug-14 16:30N 54°37' W 005°55'0 0.0
2016-Aug-14 14:33N 54°37' W 005°55'0 0.0
2016-Aug-14 07:32N 54°37' W 005°55'0 0.0
2016-Aug-14 06:23N 54°37' W 005°55'0 0.0
2016-Aug-14 04:25N 54°37' W 005°55'0 0.0
2016-Aug-14 03:28N 54°37' W 005°55'0 0.0
2016-Aug-14 02:25N 54°37' W 005°55'0 0.0
2016-Aug-14 01:30N 54°37' W 005°55'  

Dump ship's entire track history